sensor_id;sensor_type;location;lat;lon;timestamp;temperature;humidity
19060;DHT22;9663;48.996;8.334;2022-09-02T00:01:30;20.60;44.60
19060;DHT22;9663;48.996;8.334;2022-09-02T00:04:11;20.60;45.20
19060;DHT22;9663;48.996;8.334;2022-09-02T00:06:42;20.60;44.80
19060;DHT22;9663;48.996;8.334;2022-09-02T00:09:11;20.50;44.80
19060;DHT22;9663;48.996;8.334;2022-09-02T00:11:40;20.50;44.90
19060;DHT22;9663;48.996;8.334;2022-09-02T00:14:12;20.50;44.90
19060;DHT22;9663;48.996;8.334;2022-09-02T00:16:42;20.40;45.00
19060;DHT22;9663;48.996;8.334;2022-09-02T00:19:22;20.40;44.90
19060;DHT22;9663;48.996;8.334;2022-09-02T00:21:51;20.40;45.00
19060;DHT22;9663;48.996;8.334;2022-09-02T00:24:17;20.40;45.00
19060;DHT22;9663;48.996;8.334;2022-09-02T00:26:44;20.40;45.70
19060;DHT22;9663;48.996;8.334;2022-09-02T00:29:11;20.30;45.10
19060;DHT22;9663;48.996;8.334;2022-09-02T00:31:40;20.30;45.20
19060;DHT22;9663;48.996;8.334;2022-09-02T00:34:07;20.30;46.00
19060;DHT22;9663;48.996;8.334;2022-09-02T00:36:34;20.30;45.40
19060;DHT22;9663;48.996;8.334;2022-09-02T00:39:00;20.20;45.40
19060;DHT22;9663;48.996;8.334;2022-09-02T00:41:28;20.20;45.50
19060;DHT22;9663;48.996;8.334;2022-09-02T00:44:06;20.20;45.60
19060;DHT22;9663;48.996;8.334;2022-09-02T00:46:34;20.20;46.10
19060;DHT22;9663;48.996;8.334;2022-09-02T00:51:43;20.10;45.70
19060;DHT22;9663;48.996;8.334;2022-09-02T00:54:14;20.10;45.90
19060;DHT22;9663;48.996;8.334;2022-09-02T00:56:44;20.10;45.90
19060;DHT22;9663;48.996;8.334;2022-09-02T00:59:17;20.00;45.90
19060;DHT22;9663;48.996;8.334;2022-09-02T01:01:48;20.00;46.00
19060;DHT22;9663;48.996;8.334;2022-09-02T01:04:14;20.00;45.90
19060;DHT22;9663;48.996;8.334;2022-09-02T01:06:41;20.00;46.00
19060;DHT22;9663;48.996;8.334;2022-09-02T01:09:11;19.90;46.00
19060;DHT22;9663;48.996;8.334;2022-09-02T01:11:42;19.90;46.20
19060;DHT22;9663;48.996;8.334;2022-09-02T01:14:14;19.90;46.20
19060;DHT22;9663;48.996;8.334;2022-09-02T01:16:52;19.90;46.20
19060;DHT22;9663;48.996;8.334;2022-09-02T01:19:24;19.90;46.80
19060;DHT22;9663;48.996;8.334;2022-09-02T01:21:55;19.80;46.40
19060;DHT22;9663;48.996;8.334;2022-09-02T01:24:25;19.80;46.40
19060;DHT22;9663;48.996;8.334;2022-09-02T01:26:54;19.80;46.40
19060;DHT22;9663;48.996;8.334;2022-09-02T01:29:22;19.70;46.40
19060;DHT22;9663;48.996;8.334;2022-09-02T01:31:49;19.80;46.50
19060;DHT22;9663;48.996;8.334;2022-09-02T01:34:16;19.70;46.50
19060;DHT22;9663;48.996;8.334;2022-09-02T01:36:43;19.70;46.60
19060;DHT22;9663;48.996;8.334;2022-09-02T01:39:10;19.70;46.60
19060;DHT22;9663;48.996;8.334;2022-09-02T01:41:38;19.60;46.70
19060;DHT22;9663;48.996;8.334;2022-09-02T01:44:04;19.60;46.70
19060;DHT22;9663;48.996;8.334;2022-09-02T01:46:32;19.60;46.80
19060;DHT22;9663;48.996;8.334;2022-09-02T01:48:58;19.50;46.80
19060;DHT22;9663;48.996;8.334;2022-09-02T01:51:24;19.50;46.80
19060;DHT22;9663;48.996;8.334;2022-09-02T01:53:49;19.50;46.90
19060;DHT22;9663;48.996;8.334;2022-09-02T01:56:15;19.40;47.00
19060;DHT22;9663;48.996;8.334;2022-09-02T01:58:41;19.40;47.10
19060;DHT22;9663;48.996;8.334;2022-09-02T02:01:07;19.40;47.10
19060;DHT22;9663;48.996;8.334;2022-09-02T02:03:34;19.40;47.20
19060;DHT22;9663;48.996;8.334;2022-09-02T02:06:04;19.30;47.30
19060;DHT22;9663;48.996;8.334;2022-09-02T02:08:32;19.30;47.30
19060;DHT22;9663;48.996;8.334;2022-09-02T02:10:58;19.30;47.30
19060;DHT22;9663;48.996;8.334;2022-09-02T02:13:25;19.30;47.40
19060;DHT22;9663;48.996;8.334;2022-09-02T02:15:51;19.20;47.40
19060;DHT22;9663;48.996;8.334;2022-09-02T02:18:17;19.20;47.50
19060;DHT22;9663;48.996;8.334;2022-09-02T02:20:42;19.20;47.50
19060;DHT22;9663;48.996;8.334;2022-09-02T02:23:09;19.10;47.50
19060;DHT22;9663;48.996;8.334;2022-09-02T02:25:34;19.10;47.70
19060;DHT22;9663;48.996;8.334;2022-09-02T02:28:02;19.10;47.70
19060;DHT22;9663;48.996;8.334;2022-09-02T02:30:28;19.10;47.80
19060;DHT22;9663;48.996;8.334;2022-09-02T02:32:54;19.00;47.80
19060;DHT22;9663;48.996;8.334;2022-09-02T02:35:19;19.00;47.90
19060;DHT22;9663;48.996;8.334;2022-09-02T02:37:47;18.90;47.90
19060;DHT22;9663;48.996;8.334;2022-09-02T02:40:16;18.90;48.00
19060;DHT22;9663;48.996;8.334;2022-09-02T02:42:45;18.90;48.10
19060;DHT22;9663;48.996;8.334;2022-09-02T02:45:11;19.00;48.20
19060;DHT22;9663;48.996;8.334;2022-09-02T02:47:41;18.90;48.20
19060;DHT22;9663;48.996;8.334;2022-09-02T02:50:11;18.80;48.40
19060;DHT22;9663;48.996;8.334;2022-09-02T02:52:39;18.80;48.90
19060;DHT22;9663;48.996;8.334;2022-09-02T02:55:06;18.80;48.30
19060;DHT22;9663;48.996;8.334;2022-09-02T02:57:33;18.70;48.40
19060;DHT22;9663;48.996;8.334;2022-09-02T03:00:27;18.80;48.50
19060;DHT22;9663;48.996;8.334;2022-09-02T03:03:00;18.70;49.40
19060;DHT22;9663;48.996;8.334;2022-09-02T03:05:29;18.70;48.80
19060;DHT22;9663;48.996;8.334;2022-09-02T03:07:55;18.60;48.50
19060;DHT22;9663;48.996;8.334;2022-09-02T03:10:21;18.60;48.60
19060;DHT22;9663;48.996;8.334;2022-09-02T03:12:48;18.60;48.70
19060;DHT22;9663;48.996;8.334;2022-09-02T03:15:17;18.60;48.70
19060;DHT22;9663;48.996;8.334;2022-09-02T03:17:44;18.60;48.90
19060;DHT22;9663;48.996;8.334;2022-09-02T03:20:12;18.60;48.90
19060;DHT22;9663;48.996;8.334;2022-09-02T03:22:44;18.50;48.90
19060;DHT22;9663;48.996;8.334;2022-09-02T03:25:14;18.60;49.10
19060;DHT22;9663;48.996;8.334;2022-09-02T03:27:43;18.40;49.00
19060;DHT22;9663;48.996;8.334;2022-09-02T03:30:12;18.50;49.00
19060;DHT22;9663;48.996;8.334;2022-09-02T03:32:41;18.40;49.10
19060;DHT22;9663;48.996;8.334;2022-09-02T03:35:09;18.40;49.10
19060;DHT22;9663;48.996;8.334;2022-09-02T03:37:37;18.40;49.20
19060;DHT22;9663;48.996;8.334;2022-09-02T03:40:04;18.50;49.20
19060;DHT22;9663;48.996;8.334;2022-09-02T03:42:33;18.40;49.30
19060;DHT22;9663;48.996;8.334;2022-09-02T03:44:58;18.40;49.30
19060;DHT22;9663;48.996;8.334;2022-09-02T03:47:24;18.30;49.30
19060;DHT22;9663;48.996;8.334;2022-09-02T03:49:53;18.30;49.30
19060;DHT22;9663;48.996;8.334;2022-09-02T03:52:19;18.30;49.40
19060;DHT22;9663;48.996;8.334;2022-09-02T03:54:45;18.30;49.40
19060;DHT22;9663;48.996;8.334;2022-09-02T03:57:11;18.30;49.50
19060;DHT22;9663;48.996;8.334;2022-09-02T03:59:37;18.30;49.50
19060;DHT22;9663;48.996;8.334;2022-09-02T04:02:03;18.40;49.60
19060;DHT22;9663;48.996;8.334;2022-09-02T04:04:29;18.20;49.50
19060;DHT22;9663;48.996;8.334;2022-09-02T04:06:56;18.30;49.50
19060;DHT22;9663;48.996;8.334;2022-09-02T04:09:23;18.20;49.60
19060;DHT22;9663;48.996;8.334;2022-09-02T04:11:49;18.20;49.60
19060;DHT22;9663;48.996;8.334;2022-09-02T04:14:14;18.20;49.70
19060;DHT22;9663;48.996;8.334;2022-09-02T04:16:40;18.20;50.30
19060;DHT22;9663;48.996;8.334;2022-09-02T04:19:06;18.20;49.70
19060;DHT22;9663;48.996;8.334;2022-09-02T04:21:36;18.20;49.80
19060;DHT22;9663;48.996;8.334;2022-09-02T04:24:05;18.10;49.90
19060;DHT22;9663;48.996;8.334;2022-09-02T04:26:34;18.10;49.90
19060;DHT22;9663;48.996;8.334;2022-09-02T04:29:00;18.10;49.90
19060;DHT22;9663;48.996;8.334;2022-09-02T04:31:27;18.10;50.00
19060;DHT22;9663;48.996;8.334;2022-09-02T04:33:57;18.10;50.00
19060;DHT22;9663;48.996;8.334;2022-09-02T04:36:24;18.00;49.90
19060;DHT22;9663;48.996;8.334;2022-09-02T04:38:51;18.10;50.00
19060;DHT22;9663;48.996;8.334;2022-09-02T04:41:21;18.00;50.00
19060;DHT22;9663;48.996;8.334;2022-09-02T04:43:50;18.00;50.10
19060;DHT22;9663;48.996;8.334;2022-09-02T04:46:17;18.00;50.20
19060;DHT22;9663;48.996;8.334;2022-09-02T04:48:44;18.00;50.10
19060;DHT22;9663;48.996;8.334;2022-09-02T04:51:14;18.00;50.20
19060;DHT22;9663;48.996;8.334;2022-09-02T04:53:43;17.90;50.20
19060;DHT22;9663;48.996;8.334;2022-09-02T04:56:12;17.90;50.20
19060;DHT22;9663;48.996;8.334;2022-09-02T04:58:43;17.90;50.30
19060;DHT22;9663;48.996;8.334;2022-09-02T05:01:16;17.90;50.30
19060;DHT22;9663;48.996;8.334;2022-09-02T05:03:46;17.90;50.50
19060;DHT22;9663;48.996;8.334;2022-09-02T05:06:16;17.90;50.40
19060;DHT22;9663;48.996;8.334;2022-09-02T05:08:43;18.00;50.60
19060;DHT22;9663;48.996;8.334;2022-09-02T05:11:15;17.80;50.40
19060;DHT22;9663;48.996;8.334;2022-09-02T05:13:45;17.80;50.50
19060;DHT22;9663;48.996;8.334;2022-09-02T05:16:27;17.90;50.60
19060;DHT22;9663;48.996;8.334;2022-09-02T05:18:56;17.90;50.60
19060;DHT22;9663;48.996;8.334;2022-09-02T05:21:23;17.90;50.60
19060;DHT22;9663;48.996;8.334;2022-09-02T05:23:51;17.90;50.60
19060;DHT22;9663;48.996;8.334;2022-09-02T05:26:17;17.90;50.70
19060;DHT22;9663;48.996;8.334;2022-09-02T05:28:44;17.90;50.70
19060;DHT22;9663;48.996;8.334;2022-09-02T05:31:12;17.80;50.70
19060;DHT22;9663;48.996;8.334;2022-09-02T05:33:42;18.00;50.80
19060;DHT22;9663;48.996;8.334;2022-09-02T05:36:11;18.00;50.70
19060;DHT22;9663;48.996;8.334;2022-09-02T05:38:43;18.00;50.80
19060;DHT22;9663;48.996;8.334;2022-09-02T05:41:21;18.00;50.80
19060;DHT22;9663;48.996;8.334;2022-09-02T05:43:48;18.10;51.20
19060;DHT22;9663;48.996;8.334;2022-09-02T05:46:18;18.10;51.00
19060;DHT22;9663;48.996;8.334;2022-09-02T05:48:45;18.10;50.90
19060;DHT22;9663;48.996;8.334;2022-09-02T05:54:08;18.10;50.90
19060;DHT22;9663;48.996;8.334;2022-09-02T05:56:40;18.10;51.00
19060;DHT22;9663;48.996;8.334;2022-09-02T05:59:07;18.20;51.00
19060;DHT22;9663;48.996;8.334;2022-09-02T06:01:33;18.20;51.00
19060;DHT22;9663;48.996;8.334;2022-09-02T06:04:01;18.20;51.00
19060;DHT22;9663;48.996;8.334;2022-09-02T06:06:29;18.30;51.10
19060;DHT22;9663;48.996;8.334;2022-09-02T06:08:56;18.30;51.10
19060;DHT22;9663;48.996;8.334;2022-09-02T06:11:23;18.30;51.10
19060;DHT22;9663;48.996;8.334;2022-09-02T06:13:50;18.40;51.10
19060;DHT22;9663;48.996;8.334;2022-09-02T06:16:19;18.50;51.00
19060;DHT22;9663;48.996;8.334;2022-09-02T06:18:46;18.60;51.10
19060;DHT22;9663;48.996;8.334;2022-09-02T06:21:14;18.70;51.00
19060;DHT22;9663;48.996;8.334;2022-09-02T06:23:41;18.70;51.00
19060;DHT22;9663;48.996;8.334;2022-09-02T06:26:10;18.80;51.00
19060;DHT22;9663;48.996;8.334;2022-09-02T06:28:37;18.90;51.00
19060;DHT22;9663;48.996;8.334;2022-09-02T06:31:12;19.00;50.90
19060;DHT22;9663;48.996;8.334;2022-09-02T06:33:44;19.10;50.90
19060;DHT22;9663;48.996;8.334;2022-09-02T06:36:15;19.10;50.80
19060;DHT22;9663;48.996;8.334;2022-09-02T06:38:48;19.20;50.80
19060;DHT22;9663;48.996;8.334;2022-09-02T06:41:19;19.40;50.80
19060;DHT22;9663;48.996;8.334;2022-09-02T06:43:48;19.50;50.70
19060;DHT22;9663;48.996;8.334;2022-09-02T06:46:18;19.50;50.50
19060;DHT22;9663;48.996;8.334;2022-09-02T06:48:46;19.60;50.50
19060;DHT22;9663;48.996;8.334;2022-09-02T06:51:18;19.80;50.60
19060;DHT22;9663;48.996;8.334;2022-09-02T06:53:47;19.90;50.40
19060;DHT22;9663;48.996;8.334;2022-09-02T06:56:13;20.00;50.30
19060;DHT22;9663;48.996;8.334;2022-09-02T06:58:39;20.20;50.20
19060;DHT22;9663;48.996;8.334;2022-09-02T07:01:05;20.20;50.10
19060;DHT22;9663;48.996;8.334;2022-09-02T07:03:32;20.40;50.70
19060;DHT22;9663;48.996;8.334;2022-09-02T07:06:17;20.50;50.70
19060;DHT22;9663;48.996;8.334;2022-09-02T07:08:44;20.60;49.90
19060;DHT22;9663;48.996;8.334;2022-09-02T07:11:29;20.70;49.80
19060;DHT22;9663;48.996;8.334;2022-09-02T07:13:54;20.90;49.80
19060;DHT22;9663;48.996;8.334;2022-09-02T07:16:20;20.90;49.60
19060;DHT22;9663;48.996;8.334;2022-09-02T07:18:46;21.00;49.40
19060;DHT22;9663;48.996;8.334;2022-09-02T07:21:12;21.10;49.30
19060;DHT22;9663;48.996;8.334;2022-09-02T07:23:39;21.20;49.20
19060;DHT22;9663;48.996;8.334;2022-09-02T07:26:14;21.40;49.30
19060;DHT22;9663;48.996;8.334;2022-09-02T07:28:41;21.40;49.10
19060;DHT22;9663;48.996;8.334;2022-09-02T07:31:11;21.50;49.10
19060;DHT22;9663;48.996;8.334;2022-09-02T07:33:38;21.60;49.00
19060;DHT22;9663;48.996;8.334;2022-09-02T07:36:06;21.70;49.00
19060;DHT22;9663;48.996;8.334;2022-09-02T07:38:34;21.80;48.90
19060;DHT22;9663;48.996;8.334;2022-09-02T07:41:01;21.90;48.80
19060;DHT22;9663;48.996;8.334;2022-09-02T07:43:28;22.00;48.80
19060;DHT22;9663;48.996;8.334;2022-09-02T07:45:56;22.10;48.60
19060;DHT22;9663;48.996;8.334;2022-09-02T07:48:23;22.10;48.50
19060;DHT22;9663;48.996;8.334;2022-09-02T07:50:49;22.30;48.50
19060;DHT22;9663;48.996;8.334;2022-09-02T07:53:16;22.40;48.40
19060;DHT22;9663;48.996;8.334;2022-09-02T07:55:42;22.50;48.30
19060;DHT22;9663;48.996;8.334;2022-09-02T07:58:10;22.50;48.20
19060;DHT22;9663;48.996;8.334;2022-09-02T08:00:36;22.60;48.10
19060;DHT22;9663;48.996;8.334;2022-09-02T08:03:04;22.80;48.10
19060;DHT22;9663;48.996;8.334;2022-09-02T08:05:31;22.80;48.00
19060;DHT22;9663;48.996;8.334;2022-09-02T08:07:58;22.90;47.90
19060;DHT22;9663;48.996;8.334;2022-09-02T08:10:25;23.00;47.90
19060;DHT22;9663;48.996;8.334;2022-09-02T08:12:55;23.10;47.90
19060;DHT22;9663;48.996;8.334;2022-09-02T08:15:23;23.20;47.80
19060;DHT22;9663;48.996;8.334;2022-09-02T08:17:53;23.30;47.60
19060;DHT22;9663;48.996;8.334;2022-09-02T08:20:20;23.40;48.20
19060;DHT22;9663;48.996;8.334;2022-09-02T08:22:46;23.50;47.50
19060;DHT22;9663;48.996;8.334;2022-09-02T08:25:12;23.60;47.50
19060;DHT22;9663;48.996;8.334;2022-09-02T08:27:38;23.70;47.40
19060;DHT22;9663;48.996;8.334;2022-09-02T08:30:05;23.80;47.30
19060;DHT22;9663;48.996;8.334;2022-09-02T08:32:35;23.90;47.10
19060;DHT22;9663;48.996;8.334;2022-09-02T08:35:03;24.00;47.10
19060;DHT22;9663;48.996;8.334;2022-09-02T08:37:30;24.20;47.00
19060;DHT22;9663;48.996;8.334;2022-09-02T08:39:57;24.30;46.90
19060;DHT22;9663;48.996;8.334;2022-09-02T08:48:17;24.50;46.40
19060;DHT22;9663;48.996;8.334;2022-09-02T08:50:49;24.70;46.00
19060;DHT22;9663;48.996;8.334;2022-09-02T08:56:09;24.90;46.00
19060;DHT22;9663;48.996;8.334;2022-09-02T08:58:42;25.00;46.20
19060;DHT22;9663;48.996;8.334;2022-09-02T09:10:15;25.50;45.40
19060;DHT22;9663;48.996;8.334;2022-09-02T09:16:24;25.70;45.00
19060;DHT22;9663;48.996;8.334;2022-09-02T09:19:15;25.80;44.30
19060;DHT22;9663;48.996;8.334;2022-09-02T09:21:48;25.90;44.60
19060;DHT22;9663;48.996;8.334;2022-09-02T09:29:22;26.20;44.20
19060;DHT22;9663;48.996;8.334;2022-09-02T09:31:53;26.30;44.40
19060;DHT22;9663;48.996;8.334;2022-09-02T09:34:47;26.40;43.90
19060;DHT22;9663;48.996;8.334;2022-09-02T09:40:29;26.60;43.40
19060;DHT22;9663;48.996;8.334;2022-09-02T09:48:25;26.70;43.40
19060;DHT22;9663;48.996;8.334;2022-09-02T09:53:30;26.80;43.40
19060;DHT22;9663;48.996;8.334;2022-09-02T10:04:28;27.10;42.70
19060;DHT22;9663;48.996;8.334;2022-09-02T10:06:56;27.20;42.40
19060;DHT22;9663;48.996;8.334;2022-09-02T10:09:30;27.20;42.70
19060;DHT22;9663;48.996;8.334;2022-09-02T10:12:09;27.30;42.30
19060;DHT22;9663;48.996;8.334;2022-09-02T10:14:43;27.40;42.50
19060;DHT22;9663;48.996;8.334;2022-09-02T10:23:42;27.70;41.80
19060;DHT22;9663;48.996;8.334;2022-09-02T10:26:37;27.80;41.30
19060;DHT22;9663;48.996;8.334;2022-09-02T10:32:27;27.90;41.20
19060;DHT22;9663;48.996;8.334;2022-09-02T10:35:44;28.00;41.00
19060;DHT22;9663;48.996;8.334;2022-09-02T10:38:38;28.20;40.60
19060;DHT22;9663;48.996;8.334;2022-09-02T10:47:30;28.40;39.90
19060;DHT22;9663;48.996;8.334;2022-09-02T10:58:33;28.50;40.20
19060;DHT22;9663;48.996;8.334;2022-09-02T11:01:06;28.60;40.40
19060;DHT22;9663;48.996;8.334;2022-09-02T11:03:43;28.70;40.40
19060;DHT22;9663;48.996;8.334;2022-09-02T11:06:30;28.70;40.00
19060;DHT22;9663;48.996;8.334;2022-09-02T11:09:11;28.90;39.90
19060;DHT22;9663;48.996;8.334;2022-09-02T11:12:10;28.90;39.60
19060;DHT22;9663;48.996;8.334;2022-09-02T11:15:03;29.10;39.90
19060;DHT22;9663;48.996;8.334;2022-09-02T11:21:01;29.40;39.00
19060;DHT22;9663;48.996;8.334;2022-09-02T11:23:46;29.50;39.00
19060;DHT22;9663;48.996;8.334;2022-09-02T11:33:07;30.80;38.00
19060;DHT22;9663;48.996;8.334;2022-09-02T11:35:41;31.60;37.80
19060;DHT22;9663;48.996;8.334;2022-09-02T11:41:49;32.80;37.50
19060;DHT22;9663;48.996;8.334;2022-09-02T11:53:22;35.20;34.90
19060;DHT22;9663;48.996;8.334;2022-09-02T11:56:05;35.60;33.60
19060;DHT22;9663;48.996;8.334;2022-09-02T11:58:45;36.00;33.50
19060;DHT22;9663;48.996;8.334;2022-09-02T12:06:37;36.90;31.90
19060;DHT22;9663;48.996;8.334;2022-09-02T12:13:00;37.60;30.50
19060;DHT22;9663;48.996;8.334;2022-09-02T12:15:22;37.80;30.70
19060;DHT22;9663;48.996;8.334;2022-09-02T12:23:10;38.40;29.20
19060;DHT22;9663;48.996;8.334;2022-09-02T12:26:14;38.60;30.70
19060;DHT22;9663;48.996;8.334;2022-09-02T12:28:42;38.90;30.50
19060;DHT22;9663;48.996;8.334;2022-09-02T12:31:42;39.30;30.20
19060;DHT22;9663;48.996;8.334;2022-09-02T12:50:05;41.00;27.80
19060;DHT22;9663;48.996;8.334;2022-09-02T12:52:51;41.20;26.70
19060;DHT22;9663;48.996;8.334;2022-09-02T12:55:31;41.30;27.60
19060;DHT22;9663;48.996;8.334;2022-09-02T12:58:12;41.30;27.40
19060;DHT22;9663;48.996;8.334;2022-09-02T13:21:33;41.80;24.70
19060;DHT22;9663;48.996;8.334;2022-09-02T13:24:47;41.90;24.90
19060;DHT22;9663;48.996;8.334;2022-09-02T13:27:46;42.00;24.30
19060;DHT22;9663;48.996;8.334;2022-09-02T13:33:26;41.90;24.20
19060;DHT22;9663;48.996;8.334;2022-09-02T13:35:56;41.50;25.10
19060;DHT22;9663;48.996;8.334;2022-09-02T13:38:26;40.90;24.30
19060;DHT22;9663;48.996;8.334;2022-09-02T13:40:53;40.40;24.90
19060;DHT22;9663;48.996;8.334;2022-09-02T13:43:22;40.00;25.00
19060;DHT22;9663;48.996;8.334;2022-09-02T13:45:50;39.50;24.70
19060;DHT22;9663;48.996;8.334;2022-09-02T13:48:19;39.10;24.80
19060;DHT22;9663;48.996;8.334;2022-09-02T13:50:49;38.60;24.70
19060;DHT22;9663;48.996;8.334;2022-09-02T13:53:37;38.30;25.00
19060;DHT22;9663;48.996;8.334;2022-09-02T13:56:06;38.10;24.40
19060;DHT22;9663;48.996;8.334;2022-09-02T13:58:40;38.20;25.00
19060;DHT22;9663;48.996;8.334;2022-09-02T14:01:31;38.40;24.70
19060;DHT22;9663;48.996;8.334;2022-09-02T14:04:03;38.80;24.60
19060;DHT22;9663;48.996;8.334;2022-09-02T14:06:36;39.30;25.10
19060;DHT22;9663;48.996;8.334;2022-09-02T14:09:07;39.80;25.30
19060;DHT22;9663;48.996;8.334;2022-09-02T14:11:45;40.20;24.90
19060;DHT22;9663;48.996;8.334;2022-09-02T14:14:14;40.80;24.80
19060;DHT22;9663;48.996;8.334;2022-09-02T14:16:44;41.30;24.50
19060;DHT22;9663;48.996;8.334;2022-09-02T14:21:52;42.00;23.30
19060;DHT22;9663;48.996;8.334;2022-09-02T14:24:23;42.30;22.50
19060;DHT22;9663;48.996;8.334;2022-09-02T14:26:57;42.60;23.30
19060;DHT22;9663;48.996;8.334;2022-09-02T14:29:27;42.70;22.60
19060;DHT22;9663;48.996;8.334;2022-09-02T14:32:21;42.80;22.70
19060;DHT22;9663;48.996;8.334;2022-09-02T14:37:51;43.20;21.40
19060;DHT22;9663;48.996;8.334;2022-09-02T14:40:33;43.30;21.70
19060;DHT22;9663;48.996;8.334;2022-09-02T14:43:12;43.40;21.60
19060;DHT22;9663;48.996;8.334;2022-09-02T14:45:44;43.60;21.40
19060;DHT22;9663;48.996;8.334;2022-09-02T14:48:22;43.80;21.50
19060;DHT22;9663;48.996;8.334;2022-09-02T14:50:58;44.00;21.20
19060;DHT22;9663;48.996;8.334;2022-09-02T14:53:26;44.20;20.80
19060;DHT22;9663;48.996;8.334;2022-09-02T14:55:54;44.30;21.50
19060;DHT22;9663;48.996;8.334;2022-09-02T14:58:23;44.50;21.40
19060;DHT22;9663;48.996;8.334;2022-09-02T15:00:52;44.60;21.20
19060;DHT22;9663;48.996;8.334;2022-09-02T15:03:24;44.80;21.10
19060;DHT22;9663;48.996;8.334;2022-09-02T15:05:50;44.90;20.90
19060;DHT22;9663;48.996;8.334;2022-09-02T15:08:18;45.00;20.80
19060;DHT22;9663;48.996;8.334;2022-09-02T15:10:44;45.10;20.50
19060;DHT22;9663;48.996;8.334;2022-09-02T15:13:12;45.30;20.30
19060;DHT22;9663;48.996;8.334;2022-09-02T15:15:50;45.50;20.00
19060;DHT22;9663;48.996;8.334;2022-09-02T15:18:17;45.60;20.00
19060;DHT22;9663;48.996;8.334;2022-09-02T15:20:42;45.60;19.70
19060;DHT22;9663;48.996;8.334;2022-09-02T15:23:08;45.50;19.50
19060;DHT22;9663;48.996;8.334;2022-09-02T15:25:34;45.20;19.40
19060;DHT22;9663;48.996;8.334;2022-09-02T15:28:00;45.00;19.30
19060;DHT22;9663;48.996;8.334;2022-09-02T15:30:25;44.70;19.30
19060;DHT22;9663;48.996;8.334;2022-09-02T15:32:51;44.50;19.30
19060;DHT22;9663;48.996;8.334;2022-09-02T15:35:17;44.20;19.30
19060;DHT22;9663;48.996;8.334;2022-09-02T15:37:42;43.90;19.20
19060;DHT22;9663;48.996;8.334;2022-09-02T15:40:08;43.70;19.20
19060;DHT22;9663;48.996;8.334;2022-09-02T15:42:35;43.40;19.20
19060;DHT22;9663;48.996;8.334;2022-09-02T15:45:04;43.10;19.20
19060;DHT22;9663;48.996;8.334;2022-09-02T15:47:36;42.70;19.00
19060;DHT22;9663;48.996;8.334;2022-09-02T15:50:04;42.40;18.90
19060;DHT22;9663;48.996;8.334;2022-09-02T15:52:31;42.00;19.10
19060;DHT22;9663;48.996;8.334;2022-09-02T15:54:58;41.70;19.20
19060;DHT22;9663;48.996;8.334;2022-09-02T15:57:24;41.30;19.20
19060;DHT22;9663;48.996;8.334;2022-09-02T15:59:49;40.90;19.10
19060;DHT22;9663;48.996;8.334;2022-09-02T16:02:16;40.40;19.10
19060;DHT22;9663;48.996;8.334;2022-09-02T16:04:41;39.80;19.00
19060;DHT22;9663;48.996;8.334;2022-09-02T16:07:07;39.10;18.80
19060;DHT22;9663;48.996;8.334;2022-09-02T16:09:33;38.30;18.90
19060;DHT22;9663;48.996;8.334;2022-09-02T16:11:59;37.50;19.10
19060;DHT22;9663;48.996;8.334;2022-09-02T16:14:25;36.70;19.30
19060;DHT22;9663;48.996;8.334;2022-09-02T16:16:52;36.00;19.60
19060;DHT22;9663;48.996;8.334;2022-09-02T16:19:20;35.40;19.90
19060;DHT22;9663;48.996;8.334;2022-09-02T16:21:48;34.60;20.10
19060;DHT22;9663;48.996;8.334;2022-09-02T16:24:14;34.10;20.50
19060;DHT22;9663;48.996;8.334;2022-09-02T16:26:40;33.70;20.60
19060;DHT22;9663;48.996;8.334;2022-09-02T16:29:09;33.30;20.80
19060;DHT22;9663;48.996;8.334;2022-09-02T16:31:40;33.00;21.00
19060;DHT22;9663;48.996;8.334;2022-09-02T16:34:11;32.70;21.20
19060;DHT22;9663;48.996;8.334;2022-09-02T16:36:41;32.40;21.50
19060;DHT22;9663;48.996;8.334;2022-09-02T16:39:09;32.10;21.50
19060;DHT22;9663;48.996;8.334;2022-09-02T16:41:39;31.90;21.80
19060;DHT22;9663;48.996;8.334;2022-09-02T16:44:13;31.80;22.00
19060;DHT22;9663;48.996;8.334;2022-09-02T16:46:43;31.70;22.20
19060;DHT22;9663;48.996;8.334;2022-09-02T16:49:12;31.60;22.40
19060;DHT22;9663;48.996;8.334;2022-09-02T16:51:43;31.70;22.60
19060;DHT22;9663;48.996;8.334;2022-09-02T16:54:13;31.70;22.50
19060;DHT22;9663;48.996;8.334;2022-09-02T16:56:40;31.60;22.50
19060;DHT22;9663;48.996;8.334;2022-09-02T16:59:07;31.60;22.50
19060;DHT22;9663;48.996;8.334;2022-09-02T17:01:35;31.50;22.40
19060;DHT22;9663;48.996;8.334;2022-09-02T17:04:02;31.30;22.40
19060;DHT22;9663;48.996;8.334;2022-09-02T17:06:30;31.10;22.50
19060;DHT22;9663;48.996;8.334;2022-09-02T17:08:56;30.90;22.60
19060;DHT22;9663;48.996;8.334;2022-09-02T17:11:28;30.80;22.70
19060;DHT22;9663;48.996;8.334;2022-09-02T17:14:06;30.60;22.80
19060;DHT22;9663;48.996;8.334;2022-09-02T17:16:39;30.40;22.90
19060;DHT22;9663;48.996;8.334;2022-09-02T17:19:06;30.20;23.00
19060;DHT22;9663;48.996;8.334;2022-09-02T17:24:06;29.90;23.20
19060;DHT22;9663;48.996;8.334;2022-09-02T17:26:36;29.70;23.30
19060;DHT22;9663;48.996;8.334;2022-09-02T17:29:09;29.50;23.40
19060;DHT22;9663;48.996;8.334;2022-09-02T17:31:37;29.30;23.70
19060;DHT22;9663;48.996;8.334;2022-09-02T17:34:05;29.20;23.60
19060;DHT22;9663;48.996;8.334;2022-09-02T17:36:33;29.10;23.80
19060;DHT22;9663;48.996;8.334;2022-09-02T17:39:10;28.80;23.80
19060;DHT22;9663;48.996;8.334;2022-09-02T17:41:37;28.70;23.90
19060;DHT22;9663;48.996;8.334;2022-09-02T17:44:19;28.70;23.90
19060;DHT22;9663;48.996;8.334;2022-09-02T17:46:46;28.50;24.00
19060;DHT22;9663;48.996;8.334;2022-09-02T17:49:13;28.40;24.20
19060;DHT22;9663;48.996;8.334;2022-09-02T17:51:39;28.30;24.30
19060;DHT22;9663;48.996;8.334;2022-09-02T17:54:06;28.10;24.30
19060;DHT22;9663;48.996;8.334;2022-09-02T18:05:20;27.70;25.00
19060;DHT22;9663;48.996;8.334;2022-09-02T18:08:18;27.60;25.10
19060;DHT22;9663;48.996;8.334;2022-09-02T18:10:54;27.40;25.30
19060;DHT22;9663;48.996;8.334;2022-09-02T18:21:41;27.00;25.60
19060;DHT22;9663;48.996;8.334;2022-09-02T18:30:12;26.60;25.90
19060;DHT22;9663;48.996;8.334;2022-09-02T18:33:09;26.50;25.90
19060;DHT22;9663;48.996;8.334;2022-09-02T18:36:08;26.40;26.50
19060;DHT22;9663;48.996;8.334;2022-09-02T18:42:01;26.20;26.50
19060;DHT22;9663;48.996;8.334;2022-09-02T18:44:40;26.10;26.50
19060;DHT22;9663;48.996;8.334;2022-09-02T18:49:44;26.00;26.40
19060;DHT22;9663;48.996;8.334;2022-09-02T18:52:12;25.90;26.40
19060;DHT22;9663;48.996;8.334;2022-09-02T18:54:46;25.80;26.50
19060;DHT22;9663;48.996;8.334;2022-09-02T18:57:19;25.80;27.40
19060;DHT22;9663;48.996;8.334;2022-09-02T19:00:01;25.70;26.70
19060;DHT22;9663;48.996;8.334;2022-09-02T19:02:44;25.60;27.00
19060;DHT22;9663;48.996;8.334;2022-09-02T19:05:17;25.60;27.60
19060;DHT22;9663;48.996;8.334;2022-09-02T19:07:57;25.50;27.30
19060;DHT22;9663;48.996;8.334;2022-09-02T19:10:44;25.50;27.40
19060;DHT22;9663;48.996;8.334;2022-09-02T19:13:10;25.50;27.30
19060;DHT22;9663;48.996;8.334;2022-09-02T19:15:37;25.50;27.40
19060;DHT22;9663;48.996;8.334;2022-09-02T19:18:04;25.50;27.50